createdAt,value
2022-11-14T00:00:56.586Z,48.18
2022-11-14T00:01:56.491Z,48.18
2022-11-14T00:02:56.531Z,46.73
2022-11-14T00:03:56.486Z,43.99
2022-11-14T00:04:56.478Z,44.31
2022-11-14T00:05:56.453Z,45.44
2022-11-14T00:06:56.487Z,44.96
2022-11-14T00:07:56.522Z,46.25
2022-11-14T00:08:56.425Z,49.95
2022-11-14T00:09:56.437Z,48.02
2022-11-14T00:10:56.408Z,44.15
2022-11-14T00:11:56.424Z,44.96
2022-11-14T00:12:56.397Z,44.15
2022-11-14T00:13:56.380Z,43.99
2022-11-14T00:14:56.373Z,44.31
2022-11-14T00:15:56.388Z,44.31
2022-11-14T00:16:56.444Z,44.15
2022-11-14T00:17:56.347Z,45.60
2022-11-14T00:18:56.335Z,53.33
2022-11-14T00:19:56.328Z,48.66
2022-11-14T00:20:56.332Z,45.44
2022-11-14T00:21:56.381Z,46.73
2022-11-14T00:22:56.336Z,45.92
2022-11-14T00:23:56.287Z,46.89
2022-11-14T00:24:56.276Z,47.70
2022-11-14T00:25:56.284Z,48.50
2022-11-14T00:26:56.248Z,48.82
2022-11-14T00:27:56.266Z,50.11
2022-11-14T00:28:56.245Z,47.37
2022-11-14T00:29:56.223Z,48.50
2022-11-14T00:30:56.289Z,44.96
2022-11-14T00:31:56.263Z,44.96
2022-11-14T00:32:56.268Z,45.44
2022-11-14T00:33:56.189Z,45.28
2022-11-14T00:34:56.176Z,44.47
2022-11-14T00:35:56.173Z,44.96
2022-11-14T00:36:56.149Z,44.31
2022-11-14T00:37:56.148Z,46.73
2022-11-14T00:38:56.151Z,44.96
2022-11-14T00:39:56.121Z,47.70
2022-11-14T00:40:56.144Z,53.66
2022-11-14T00:41:56.098Z,51.88
2022-11-14T00:42:56.108Z,48.18
2022-11-14T00:43:56.096Z,45.44
2022-11-14T00:44:56.089Z,46.89
2022-11-14T00:45:56.091Z,46.08
2022-11-14T00:46:56.075Z,47.53
2022-11-14T00:47:56.059Z,45.76
2022-11-14T00:48:56.142Z,45.12
2022-11-14T00:49:56.042Z,47.37
2022-11-14T00:50:56.049Z,46.89
2022-11-14T00:51:56.071Z,50.76
2022-11-14T00:52:56.017Z,47.86
2022-11-14T00:53:56.013Z,49.15
2022-11-14T00:54:56.036Z,48.66
2022-11-14T00:55:55.992Z,48.02
2022-11-14T00:56:55.966Z,44.31
2022-11-14T00:57:55.985Z,44.47
2022-11-14T00:58:55.962Z,46.89
2022-11-14T00:59:55.959Z,45.12
2022-11-14T01:00:55.945Z,44.79
2022-11-14T01:01:58.016Z,46.41
2022-11-14T01:02:56.946Z,47.05
2022-11-14T01:03:55.959Z,44.63
2022-11-14T01:04:55.959Z,51.40
2022-11-14T01:05:55.887Z,47.70
2022-11-14T01:06:56.906Z,44.96
2022-11-14T01:07:55.842Z,45.76
2022-11-14T01:08:56.931Z,45.28
2022-11-14T01:09:55.855Z,48.34
2022-11-14T01:10:55.850Z,46.57
2022-11-14T01:11:55.831Z,46.25
2022-11-14T01:12:55.805Z,44.47
2022-11-14T01:13:55.800Z,44.63
2022-11-14T01:14:55.787Z,44.79
2022-11-14T01:15:55.819Z,44.31
2022-11-14T01:16:55.859Z,45.76
2022-11-14T01:17:55.778Z,48.18
2022-11-14T01:18:55.761Z,48.66
2022-11-14T01:19:55.739Z,47.21
2022-11-14T01:20:55.798Z,49.31
2022-11-14T01:21:55.718Z,48.82
2022-11-14T01:22:55.764Z,45.92
2022-11-14T01:23:55.718Z,45.92
2022-11-14T01:24:55.692Z,47.70
2022-11-14T01:25:55.714Z,51.24
2022-11-14T01:26:55.676Z,45.76
2022-11-14T01:27:55.666Z,46.25
2022-11-14T01:28:55.668Z,45.92
2022-11-14T01:29:55.643Z,45.92
2022-11-14T01:30:55.646Z,48.18
2022-11-14T01:31:55.674Z,45.60
2022-11-14T01:32:55.663Z,48.98
2022-11-14T01:33:55.610Z,48.34
2022-11-14T01:34:55.617Z,46.89
2022-11-14T01:35:55.593Z,49.63
2022-11-14T01:36:55.661Z,51.24
2022-11-14T01:37:55.570Z,45.92
2022-11-14T01:38:55.552Z,44.96
2022-11-14T01:39:55.573Z,44.31
2022-11-14T01:40:55.548Z,46.25
2022-11-14T01:41:55.567Z,45.60
2022-11-14T01:42:55.529Z,47.53
2022-11-14T01:43:55.515Z,48.34
2022-11-14T01:44:55.504Z,46.57
2022-11-14T01:45:55.552Z,45.12
2022-11-14T01:46:55.490Z,46.73
2022-11-14T01:47:55.488Z,48.50
2022-11-14T01:48:55.468Z,48.34
2022-11-14T01:49:55.484Z,48.18
2022-11-14T01:50:55.462Z,51.24
2022-11-14T01:51:55.431Z,48.66
2022-11-14T01:52:55.546Z,46.08
2022-11-14T01:53:55.414Z,46.08
2022-11-14T01:54:55.459Z,46.89
2022-11-14T01:55:55.393Z,46.25
2022-11-14T01:56:55.385Z,45.44
2022-11-14T01:57:55.420Z,46.25
2022-11-14T01:58:55.369Z,47.70
2022-11-14T01:59:55.369Z,47.53
2022-11-14T02:00:55.409Z,45.12
2022-11-14T02:01:55.435Z,48.02
2022-11-14T02:02:55.323Z,48.66
2022-11-14T02:03:55.326Z,51.24
2022-11-14T02:04:55.332Z,49.31
2022-11-14T02:05:55.298Z,47.37
2022-11-14T02:06:55.331Z,45.76
2022-11-14T02:07:55.315Z,48.50
2022-11-14T02:08:55.342Z,46.41
2022-11-14T02:09:55.295Z,45.92
2022-11-14T02:10:55.252Z,45.76
2022-11-14T02:11:55.241Z,45.28
2022-11-14T02:12:55.248Z,45.92
2022-11-14T02:13:55.235Z,48.98
2022-11-14T02:14:55.237Z,48.18
2022-11-14T02:15:55.213Z,46.57
2022-11-14T02:17:14.798Z,49.63
2022-11-14T02:17:57.186Z,48.02
2022-11-14T02:18:55.180Z,46.57
2022-11-14T02:19:55.175Z,47.21
2022-11-14T02:20:55.154Z,47.21
2022-11-14T02:21:55.178Z,48.50
2022-11-14T02:22:55.135Z,51.24
2022-11-14T02:23:55.129Z,48.02
2022-11-14T02:24:55.196Z,47.53
2022-11-14T02:25:55.178Z,50.92
2022-11-14T02:26:55.114Z,48.98
2022-11-14T02:27:55.123Z,48.02
2022-11-14T02:28:55.085Z,47.21
2022-11-14T02:29:55.071Z,48.02
2022-11-14T02:30:55.059Z,50.76
2022-11-14T02:31:55.063Z,53.17
2022-11-14T02:33:10.397Z,52.05
2022-11-14T02:33:57.079Z,48.82
2022-11-14T02:34:55.068Z,49.79
2022-11-14T02:35:55.057Z,48.66
2022-11-14T02:36:55.005Z,48.66
2022-11-14T02:37:55.002Z,51.56
2022-11-14T02:38:54.996Z,48.34
2022-11-14T02:39:55.976Z,49.79
2022-11-14T02:40:55.052Z,49.31
2022-11-14T02:41:54.967Z,50.76
2022-11-14T02:42:54.950Z,47.70
2022-11-14T02:43:54.964Z,48.18
2022-11-14T02:44:54.950Z,48.02
2022-11-14T02:45:54.954Z,48.50
2022-11-14T02:46:54.907Z,47.86
2022-11-14T02:47:54.909Z,47.53
2022-11-14T02:48:54.945Z,48.50
2022-11-14T02:50:14.691Z,48.82
2022-11-14T02:50:54.889Z,59.30
2022-11-14T02:51:54.863Z,50.27
2022-11-14T02:52:54.845Z,49.31
2022-11-14T02:53:54.865Z,51.72
2022-11-14T02:54:54.966Z,53.82
2022-11-14T02:55:54.822Z,52.53
2022-11-14T02:56:54.891Z,48.66
2022-11-14T02:57:54.823Z,49.95
2022-11-14T02:58:54.800Z,55.11
2022-11-14T02:59:54.801Z,52.37
2022-11-14T03:01:19.086Z,50.11
2022-11-14T03:01:56.834Z,48.66
2022-11-14T03:02:54.775Z,51.40
2022-11-14T03:03:54.787Z,51.40
2022-11-14T03:04:54.832Z,49.15
2022-11-14T03:05:54.707Z,48.18
2022-11-14T03:06:54.765Z,50.27
2022-11-14T03:07:54.778Z,47.05
2022-11-14T03:08:54.692Z,48.66
2022-11-14T03:09:54.681Z,52.37
2022-11-14T03:10:54.669Z,52.21
2022-11-14T03:11:54.669Z,48.66
2022-11-14T03:12:54.777Z,50.11
2022-11-14T03:13:54.706Z,49.63
2022-11-14T03:14:54.652Z,52.85
2022-11-14T03:15:54.687Z,54.95
2022-11-14T03:16:54.703Z,48.02
2022-11-14T03:17:54.621Z,48.18
2022-11-14T03:18:54.603Z,51.08
2022-11-14T03:19:54.593Z,53.82
2022-11-14T03:20:54.588Z,53.01
2022-11-14T03:21:54.567Z,48.66
2022-11-14T03:22:54.571Z,48.34
2022-11-14T03:23:54.582Z,47.86
2022-11-14T03:24:54.585Z,49.79
2022-11-14T03:25:54.533Z,48.82
2022-11-14T03:26:54.522Z,49.15
2022-11-14T03:27:54.512Z,49.47
2022-11-14T03:28:54.517Z,49.79
2022-11-14T03:29:54.650Z,48.50
2022-11-14T03:30:54.484Z,49.15
2022-11-14T03:31:54.504Z,48.34
2022-11-14T03:32:54.468Z,48.18
2022-11-14T03:33:54.465Z,49.95
2022-11-14T03:34:54.461Z,48.34
2022-11-14T03:35:55.485Z,51.08
2022-11-14T03:36:54.430Z,50.92
2022-11-14T03:37:56.488Z,55.59
2022-11-14T03:38:55.433Z,53.17
2022-11-14T03:39:54.431Z,52.85
2022-11-14T03:40:54.506Z,52.53
2022-11-14T03:41:54.387Z,49.47
2022-11-14T03:42:54.421Z,49.79
2022-11-14T03:43:54.431Z,51.72
2022-11-14T03:44:54.446Z,51.72
2022-11-14T03:45:54.355Z,49.47
2022-11-14T03:46:54.355Z,49.79
2022-11-14T03:47:54.330Z,49.79
2022-11-14T03:48:54.319Z,51.24
2022-11-14T03:49:54.315Z,55.27
2022-11-14T03:50:54.309Z,56.72
2022-11-14T03:51:54.315Z,53.33
2022-11-14T03:52:54.281Z,55.27
2022-11-14T03:53:54.268Z,53.98
2022-11-14T03:54:54.378Z,54.79
2022-11-14T03:55:54.332Z,55.11
2022-11-14T03:56:54.237Z,52.05
2022-11-14T03:57:54.310Z,51.40
2022-11-14T03:58:54.220Z,52.37
2022-11-14T03:59:54.247Z,52.85
2022-11-14T04:00:54.417Z,55.91
2022-11-14T04:01:54.199Z,54.79
2022-11-14T04:02:54.174Z,53.33
2022-11-14T04:03:54.175Z,58.65
2022-11-14T04:04:54.166Z,52.53
2022-11-14T04:05:54.186Z,53.50
2022-11-14T04:06:54.164Z,57.04
2022-11-14T04:07:54.135Z,58.17
2022-11-14T04:08:54.181Z,57.04
2022-11-14T04:09:54.124Z,57.04
2022-11-14T04:10:54.127Z,56.88
2022-11-14T04:11:54.103Z,54.62
2022-11-14T04:12:54.097Z,53.01
2022-11-14T04:13:54.078Z,55.43
2022-11-14T04:14:54.071Z,56.56
2022-11-14T04:15:54.057Z,52.53
2022-11-14T04:16:54.147Z,57.69
2022-11-14T04:17:54.043Z,55.59
2022-11-14T04:18:54.046Z,54.79
2022-11-14T04:19:54.026Z,56.24
2022-11-14T04:20:54.014Z,56.40
2022-11-14T04:21:54.081Z,53.33
2022-11-14T04:22:53.992Z,56.07
2022-11-14T04:23:53.983Z,56.56
2022-11-14T04:24:53.974Z,56.72
2022-11-14T04:25:53.971Z,56.56
2022-11-14T04:26:53.960Z,56.24
2022-11-14T04:27:53.971Z,55.11
2022-11-14T04:28:53.945Z,53.01
2022-11-14T04:29:53.927Z,56.56
2022-11-14T04:30:53.938Z,57.04
2022-11-14T04:31:53.913Z,56.24
2022-11-14T04:32:54.001Z,56.07
2022-11-14T04:33:53.884Z,57.52
2022-11-14T04:34:53.884Z,56.24
2022-11-14T04:35:53.874Z,58.01
2022-11-14T04:36:53.854Z,58.17
2022-11-14T04:37:53.858Z,58.49
2022-11-14T04:38:53.871Z,59.46
2022-11-14T04:39:53.834Z,58.01
2022-11-14T04:40:53.829Z,55.43
2022-11-14T04:41:53.815Z,58.17
2022-11-14T04:42:53.795Z,57.52
2022-11-14T04:43:53.785Z,57.20
2022-11-14T04:44:53.856Z,56.40
2022-11-14T04:45:53.777Z,57.04
2022-11-14T04:46:53.805Z,56.88
2022-11-14T04:47:53.754Z,56.24
2022-11-14T04:48:53.831Z,55.75
2022-11-14T04:49:53.745Z,57.04
2022-11-14T04:50:53.755Z,56.72
2022-11-14T04:51:53.714Z,57.20
2022-11-14T04:52:53.772Z,56.72
2022-11-14T04:53:53.695Z,55.59
2022-11-14T04:54:53.745Z,57.52
2022-11-14T04:55:53.667Z,57.20
2022-11-14T04:56:53.666Z,57.69
2022-11-14T04:57:53.670Z,57.20
2022-11-14T04:58:53.645Z,55.11
2022-11-14T04:59:53.639Z,55.43
2022-11-14T05:00:53.625Z,56.72
2022-11-14T05:01:53.718Z,56.88
2022-11-14T05:02:53.632Z,56.56
2022-11-14T05:03:53.618Z,59.30
2022-11-14T05:04:53.638Z,58.01
2022-11-14T05:05:53.582Z,57.20
2022-11-14T05:06:53.611Z,58.17
2022-11-14T05:07:53.566Z,57.20
2022-11-14T05:08:53.561Z,58.81
2022-11-14T05:09:53.558Z,54.95
2022-11-14T05:10:53.537Z,55.91
2022-11-14T05:11:53.605Z,56.88
2022-11-14T05:12:53.512Z,55.91
2022-11-14T05:13:53.547Z,56.88
2022-11-14T05:14:53.508Z,57.36
2022-11-14T05:15:53.485Z,58.33
2022-11-14T05:16:53.482Z,57.85
2022-11-14T05:17:53.477Z,57.69
2022-11-14T05:18:53.469Z,58.17
2022-11-14T05:19:53.475Z,56.88
2022-11-14T05:20:53.486Z,57.69
2022-11-14T05:21:53.473Z,56.56
2022-11-14T05:22:53.433Z,58.33
2022-11-14T05:23:53.505Z,55.11
2022-11-14T05:24:53.423Z,57.20
2022-11-14T05:25:58.564Z,55.91
2022-11-14T05:26:54.439Z,58.65
2022-11-14T05:27:53.384Z,58.33
2022-11-14T05:28:53.398Z,57.52
2022-11-14T05:29:53.366Z,55.43
2022-11-14T05:30:53.348Z,56.07
2022-11-14T05:31:53.384Z,57.85
2022-11-14T05:32:53.361Z,59.14
2022-11-14T05:33:53.328Z,58.81
2022-11-14T05:34:53.333Z,58.17
2022-11-14T05:35:53.396Z,59.14
2022-11-14T05:36:53.295Z,58.65
2022-11-14T05:37:58.765Z,58.65
2022-11-14T05:38:55.280Z,59.78
2022-11-14T05:39:53.268Z,58.17
2022-11-14T05:40:53.338Z,57.36
2022-11-14T05:41:53.310Z,59.30
2022-11-14T05:42:53.275Z,58.49
2022-11-14T05:43:53.227Z,57.69
2022-11-14T05:44:53.269Z,59.62
2022-11-14T05:45:53.228Z,59.78
2022-11-14T05:46:53.293Z,55.91
2022-11-14T05:47:53.195Z,56.88
2022-11-14T05:48:53.190Z,59.78
2022-11-14T05:49:53.168Z,57.85
2022-11-14T05:50:53.154Z,58.65
2022-11-14T05:51:53.165Z,57.20
2022-11-14T05:52:53.158Z,57.69
2022-11-14T05:53:53.139Z,58.17
2022-11-14T05:54:53.156Z,58.33
2022-11-14T05:55:53.170Z,58.65
2022-11-14T05:56:53.173Z,60.59
2022-11-14T05:57:53.093Z,60.26
2022-11-14T05:58:53.087Z,60.91
2022-11-14T05:59:53.078Z,58.97
2022-11-14T06:00:54.520Z,57.85
2022-11-14T06:01:54.119Z,59.30
2022-11-14T06:02:53.057Z,58.81
2022-11-14T06:03:53.054Z,58.01
2022-11-14T06:04:53.043Z,58.97
2022-11-14T06:05:53.046Z,58.81
2022-11-14T06:06:53.068Z,59.78
2022-11-14T06:07:53.008Z,59.14
2022-11-14T06:08:53.019Z,57.52
2022-11-14T06:09:52.990Z,57.69
2022-11-14T06:10:52.979Z,58.33
2022-11-14T06:11:52.976Z,58.97
2022-11-14T06:12:52.963Z,58.81
2022-11-14T06:13:52.965Z,57.85
2022-11-14T06:14:53.014Z,58.49
2022-11-14T06:15:52.927Z,59.14
2022-11-14T06:16:52.979Z,61.71
2022-11-14T06:17:52.910Z,59.14
2022-11-14T06:18:52.983Z,59.14
2022-11-14T06:19:52.889Z,60.59
2022-11-14T06:20:52.874Z,60.75
2022-11-14T06:21:52.930Z,59.14
2022-11-14T06:22:52.865Z,59.30
2022-11-14T06:23:52.849Z,59.78
2022-11-14T06:24:52.837Z,59.30
2022-11-14T06:25:52.841Z,62.68
2022-11-14T06:26:52.821Z,62.68
2022-11-14T06:27:52.840Z,62.04
2022-11-14T06:28:52.825Z,57.69
2022-11-14T06:29:52.811Z,59.14
2022-11-14T06:30:52.787Z,62.20
2022-11-14T06:31:52.781Z,59.94
2022-11-14T06:32:52.801Z,58.65
2022-11-14T06:33:52.780Z,58.97
2022-11-14T06:34:52.741Z,59.62
2022-11-14T06:35:53.754Z,58.97
2022-11-14T06:36:52.732Z,58.81
2022-11-14T06:37:52.719Z,58.97
2022-11-14T06:38:52.743Z,58.65
2022-11-14T06:39:52.700Z,59.78
2022-11-14T06:40:52.686Z,58.97
2022-11-14T06:41:52.684Z,59.62
2022-11-14T06:42:52.701Z,58.33
2022-11-14T06:43:52.658Z,59.14
2022-11-14T06:44:52.666Z,60.10
2022-11-14T06:45:52.644Z,59.94
2022-11-14T06:46:53.654Z,58.17
2022-11-14T06:47:52.622Z,59.62
2022-11-14T06:48:52.648Z,58.49
2022-11-14T06:49:52.610Z,59.62
2022-11-14T06:50:52.599Z,58.97
2022-11-14T06:51:52.594Z,59.46
2022-11-14T06:52:52.620Z,57.69
2022-11-14T06:53:52.589Z,58.33
2022-11-14T06:54:52.554Z,60.59
2022-11-14T06:55:52.552Z,60.59
2022-11-14T06:56:52.601Z,59.62
2022-11-14T06:57:52.554Z,60.59
2022-11-14T06:58:52.584Z,58.97
2022-11-14T06:59:52.508Z,57.20
2022-11-14T07:00:52.527Z,57.69
2022-11-14T07:01:52.568Z,57.04
2022-11-14T07:02:52.564Z,58.17
2022-11-14T07:03:52.492Z,58.01
2022-11-14T07:04:52.459Z,57.04
2022-11-14T07:05:52.448Z,60.26
2022-11-14T07:06:52.542Z,59.78
2022-11-14T07:07:52.426Z,58.17
2022-11-14T07:08:52.447Z,57.52
2022-11-14T07:09:52.436Z,58.81
2022-11-14T07:10:52.437Z,60.10
2022-11-14T07:11:52.404Z,58.17
2022-11-14T07:12:52.441Z,60.10
2022-11-14T07:13:52.393Z,60.42
2022-11-14T07:14:52.388Z,61.87
2022-11-14T07:15:52.362Z,60.26
2022-11-14T07:16:52.355Z,58.65
2022-11-14T07:17:52.361Z,57.20
2022-11-14T07:18:52.374Z,58.49
2022-11-14T07:19:52.332Z,58.65
2022-11-14T07:20:52.307Z,58.17
2022-11-14T07:21:52.310Z,59.14
2022-11-14T07:22:52.291Z,59.78
2022-11-14T07:23:52.288Z,58.17
2022-11-14T07:24:52.340Z,58.49
2022-11-14T07:25:52.284Z,57.85
2022-11-14T07:26:52.251Z,58.17
2022-11-14T07:27:52.248Z,58.01
2022-11-14T07:28:55.483Z,55.43
2022-11-14T07:29:54.244Z,57.85
2022-11-14T07:30:52.273Z,58.97
2022-11-14T07:31:52.228Z,57.69
2022-11-14T07:32:52.218Z,56.40
2022-11-14T07:33:52.197Z,58.65
2022-11-14T07:34:52.173Z,57.04
2022-11-14T07:35:53.168Z,58.49
2022-11-14T07:36:52.177Z,57.69
2022-11-14T07:37:52.178Z,57.20
2022-11-14T07:38:52.185Z,57.85
2022-11-14T07:39:52.144Z,57.85
2022-11-14T07:40:56.661Z,57.04
2022-11-14T07:41:53.125Z,59.14
2022-11-14T07:42:52.130Z,57.52
2022-11-14T07:43:52.116Z,56.56
2022-11-14T07:44:52.137Z,57.04
2022-11-14T07:45:52.062Z,55.43
2022-11-14T07:46:52.065Z,58.65
2022-11-14T07:47:52.169Z,56.56
2022-11-14T07:48:52.043Z,57.04
2022-11-14T07:49:52.036Z,56.88
2022-11-14T07:50:52.031Z,57.85
2022-11-14T07:51:52.070Z,56.88
2022-11-14T07:52:52.035Z,58.01
2022-11-14T07:53:52.000Z,58.81
2022-11-14T07:54:52.037Z,58.33
2022-11-14T07:55:52.015Z,58.33
2022-11-14T07:56:51.997Z,57.85
2022-11-14T07:57:51.981Z,58.17
2022-11-14T07:58:52.038Z,55.27
2022-11-14T07:59:51.996Z,58.65
2022-11-14T08:00:51.968Z,57.20
2022-11-14T08:01:51.919Z,56.24
2022-11-14T08:02:51.913Z,56.24
2022-11-14T08:03:51.897Z,56.56
2022-11-14T08:04:51.914Z,55.59
2022-11-14T08:05:51.873Z,56.56
2022-11-14T08:06:51.944Z,57.04
2022-11-14T08:07:51.875Z,55.43
2022-11-14T08:08:51.867Z,58.33
2022-11-14T08:09:51.857Z,55.91
2022-11-14T08:10:51.825Z,57.20
2022-11-14T08:11:51.864Z,54.62
2022-11-14T08:13:10.661Z,55.11
2022-11-14T08:13:52.822Z,56.07
2022-11-14T08:14:51.792Z,56.88
2022-11-14T08:15:51.803Z,56.24
2022-11-14T08:16:51.786Z,55.43
2022-11-14T08:17:51.757Z,57.20
2022-11-14T08:18:51.748Z,58.01
2022-11-14T08:19:51.737Z,56.56
2022-11-14T08:20:51.734Z,54.95
2022-11-14T08:21:51.788Z,55.43
2022-11-14T08:22:51.720Z,57.04
2022-11-14T08:23:51.692Z,56.24
2022-11-14T08:24:51.680Z,56.88
2022-11-14T08:25:51.671Z,58.01
2022-11-14T08:26:51.737Z,57.04
2022-11-14T08:27:51.662Z,56.07
2022-11-14T08:28:51.667Z,54.95
2022-11-14T08:29:51.638Z,56.72
2022-11-14T08:30:51.665Z,57.04
2022-11-14T08:31:55.685Z,55.59
2022-11-14T08:32:52.623Z,54.46
2022-11-14T08:33:51.603Z,58.01
2022-11-14T08:34:51.585Z,56.56
2022-11-14T08:35:51.584Z,58.01
2022-11-14T08:36:51.599Z,56.40
2022-11-14T08:37:51.570Z,56.40
2022-11-14T08:38:52.298Z,57.04
2022-11-14T08:39:52.538Z,57.20
2022-11-14T08:40:51.563Z,55.91
2022-11-14T08:41:51.549Z,56.56
2022-11-14T08:42:51.545Z,56.56
2022-11-14T08:43:51.508Z,55.11
2022-11-14T08:44:52.291Z,55.43
2022-11-14T08:45:52.523Z,56.24
2022-11-14T08:46:51.491Z,56.88
2022-11-14T08:47:51.472Z,56.24
2022-11-14T08:48:51.516Z,55.75
2022-11-14T08:49:51.452Z,56.40
2022-11-14T08:51:24.366Z,55.75
2022-11-14T08:51:51.430Z,57.36
2022-11-14T08:52:51.418Z,53.98
2022-11-14T08:53:51.412Z,56.24
2022-11-14T08:54:51.423Z,54.62
2022-11-14T08:55:51.389Z,56.56
2022-11-14T08:56:51.371Z,56.07
2022-11-14T08:57:51.361Z,54.95
2022-11-14T08:58:51.363Z,55.27
2022-11-14T08:59:51.361Z,55.27
2022-11-14T09:00:51.336Z,55.75
2022-11-14T09:01:51.370Z,53.82
2022-11-14T09:02:51.378Z,56.24
2022-11-14T09:03:55.409Z,54.46
2022-11-14T09:04:53.392Z,53.01
2022-11-14T09:05:51.297Z,56.56
2022-11-14T09:06:51.417Z,53.82
2022-11-14T09:07:51.261Z,56.40
2022-11-14T09:08:51.265Z,54.46
2022-11-14T09:09:51.254Z,54.79
2022-11-14T09:10:51.253Z,57.36
2022-11-14T09:11:51.227Z,56.72
2022-11-14T09:12:51.229Z,57.85
2022-11-14T09:13:51.206Z,57.04
2022-11-14T09:14:51.222Z,57.04
2022-11-14T09:15:51.190Z,55.27
2022-11-14T09:16:51.186Z,56.56
2022-11-14T09:17:51.186Z,53.17
2022-11-14T09:18:51.160Z,54.14
2022-11-14T09:19:51.153Z,53.33
2022-11-14T09:20:51.133Z,56.07
2022-11-14T09:21:51.134Z,55.27
2022-11-14T09:22:51.171Z,55.11
2022-11-14T09:23:51.111Z,57.52
2022-11-14T09:24:51.138Z,54.46
2022-11-14T09:25:51.095Z,54.46
2022-11-14T09:26:56.389Z,55.27
2022-11-14T09:27:53.095Z,54.79
2022-11-14T09:28:51.083Z,56.24
2022-11-14T09:29:51.052Z,54.95
2022-11-14T09:30:51.040Z,50.92
2022-11-14T09:31:51.051Z,52.05
2022-11-14T09:32:51.030Z,56.88
2022-11-14T09:33:51.018Z,54.95
2022-11-14T09:34:51.017Z,55.75
2022-11-14T09:35:51.016Z,55.75
2022-11-14T09:36:51.005Z,55.43
2022-11-14T09:37:50.971Z,54.14
2022-11-14T09:38:50.966Z,56.07
2022-11-14T09:39:50.949Z,53.17
2022-11-14T09:40:50.953Z,56.07
2022-11-14T09:41:50.954Z,56.07
2022-11-14T09:42:50.967Z,54.62
2022-11-14T09:43:50.925Z,56.24
2022-11-14T09:44:50.916Z,57.69
2022-11-14T09:45:50.906Z,54.95
2022-11-14T09:46:50.905Z,54.79
2022-11-14T09:47:50.896Z,54.14
2022-11-14T09:48:50.868Z,53.98
2022-11-14T09:49:50.922Z,56.24
2022-11-14T09:50:50.854Z,56.56
2022-11-14T09:51:50.834Z,52.69
2022-11-14T09:52:50.828Z,53.33
2022-11-14T09:53:50.820Z,56.56
2022-11-14T09:54:50.834Z,54.14
2022-11-14T09:55:50.851Z,54.46
2022-11-14T09:56:50.795Z,54.30
2022-11-14T09:57:50.785Z,52.53
2022-11-14T09:58:50.778Z,53.17
2022-11-14T09:59:50.778Z,53.98
2022-11-14T10:00:50.769Z,52.69
2022-11-14T10:01:50.755Z,52.85
2022-11-14T10:02:50.744Z,55.43
2022-11-14T10:03:50.744Z,54.46
2022-11-14T10:04:50.803Z,55.27
2022-11-14T10:05:50.734Z,54.30
2022-11-14T10:06:50.778Z,53.82
2022-11-14T10:07:50.736Z,55.75
2022-11-14T10:08:50.686Z,54.14
2022-11-14T10:09:50.672Z,55.75
2022-11-14T10:10:50.671Z,53.66
2022-11-14T10:11:50.667Z,55.11
2022-11-14T10:12:50.693Z,56.40
2022-11-14T10:13:50.661Z,55.75
2022-11-14T10:14:50.692Z,55.11
2022-11-14T10:15:50.634Z,55.43
2022-11-14T10:16:50.684Z,56.40
2022-11-14T10:17:50.583Z,54.14
2022-11-14T10:18:50.607Z,56.07
2022-11-14T10:19:50.574Z,55.75
2022-11-14T10:20:50.567Z,54.62
2022-11-14T10:21:50.548Z,55.11
2022-11-14T10:22:50.594Z,54.62
2022-11-14T10:23:50.531Z,56.24
2022-11-14T10:24:50.523Z,55.43
2022-11-14T10:25:50.531Z,56.07
2022-11-14T10:26:50.505Z,54.30
2022-11-14T10:27:55.866Z,55.11
2022-11-14T10:28:51.491Z,53.17
2022-11-14T10:29:50.474Z,54.14
2022-11-14T10:30:50.521Z,57.20
2022-11-14T10:31:50.475Z,56.24
2022-11-14T10:32:50.453Z,52.37
2022-11-14T10:33:50.434Z,54.79
2022-11-14T10:34:50.466Z,56.07
2022-11-14T10:35:50.433Z,54.79
2022-11-14T10:36:50.421Z,55.59
2022-11-14T10:37:50.397Z,54.30
2022-11-14T10:38:50.434Z,55.27
2022-11-14T10:39:50.378Z,52.05
2022-11-14T10:40:50.363Z,53.66
2022-11-14T10:41:58.012Z,54.95
2022-11-14T10:42:52.351Z,57.20
2022-11-14T10:43:50.348Z,55.11
2022-11-14T10:44:50.327Z,53.17
2022-11-14T10:45:50.323Z,54.14
2022-11-14T10:46:50.352Z,53.50
2022-11-14T10:47:50.329Z,55.43
2022-11-14T10:48:50.301Z,55.59
2022-11-14T10:49:50.283Z,55.91
2022-11-14T10:50:50.272Z,56.56
2022-11-14T10:51:50.300Z,56.56
2022-11-14T10:52:50.287Z,56.56
2022-11-14T10:53:50.252Z,56.88
2022-11-14T10:54:50.287Z,58.17
2022-11-14T10:56:03.603Z,55.43
2022-11-14T10:56:52.215Z,54.46
2022-11-14T10:57:50.355Z,57.04
2022-11-14T10:58:50.535Z,56.40
2022-11-14T10:59:50.192Z,53.50
2022-11-14T11:00:50.290Z,53.01
2022-11-14T11:01:50.167Z,55.91
2022-11-14T11:02:50.150Z,55.59
2022-11-14T11:03:50.273Z,55.27
2022-11-14T11:04:50.158Z,53.33
2022-11-14T11:05:50.124Z,54.14
2022-11-14T11:06:50.226Z,53.01
2022-11-14T11:07:50.115Z,53.33
2022-11-14T11:08:50.562Z,55.75
2022-11-14T11:09:50.147Z,52.37
2022-11-14T11:10:50.115Z,52.21
2022-11-14T11:11:50.054Z,51.88
2022-11-14T11:12:50.316Z,55.43
2022-11-14T11:13:50.050Z,56.56
2022-11-14T11:14:50.054Z,57.20
2022-11-14T11:15:50.024Z,54.46
2022-11-14T11:16:50.020Z,53.82
2022-11-14T11:17:50.010Z,55.75
2022-11-14T11:18:50.906Z,54.30
2022-11-14T11:19:51.084Z,53.17
2022-11-14T11:20:50.010Z,55.43
2022-11-14T11:21:50.071Z,55.11
2022-11-14T11:22:49.964Z,54.95
2022-11-14T11:23:49.965Z,53.17
2022-11-14T11:24:49.921Z,53.17
2022-11-14T11:25:49.927Z,55.75
2022-11-14T11:26:49.932Z,55.59
2022-11-14T11:27:49.904Z,57.20
2022-11-14T11:28:49.884Z,54.95
2022-11-14T11:29:49.906Z,54.14
2022-11-14T11:30:54.259Z,55.91
2022-11-14T11:31:50.868Z,55.59
2022-11-14T11:32:49.876Z,53.50
2022-11-14T11:33:49.884Z,56.24
2022-11-14T11:34:49.858Z,54.95
2022-11-14T11:35:49.828Z,53.98
2022-11-14T11:36:49.879Z,53.66
2022-11-14T11:37:49.818Z,55.59
2022-11-14T11:38:49.802Z,55.11
2022-11-14T11:39:49.793Z,55.43
2022-11-14T11:40:49.787Z,55.91
2022-11-14T11:42:08.857Z,54.30
2022-11-14T11:43:56.528Z,54.46
2022-11-14T11:44:50.745Z,55.11
2022-11-14T11:45:49.774Z,54.46
2022-11-14T11:46:49.731Z,53.98
2022-11-14T11:47:49.732Z,54.79
2022-11-14T11:48:49.705Z,56.56
2022-11-14T11:49:53.740Z,53.66
2022-11-14T11:50:50.791Z,54.30
2022-11-14T11:51:49.675Z,53.17
2022-11-14T11:52:49.671Z,56.24
2022-11-14T11:53:49.650Z,57.04
2022-11-14T11:54:49.815Z,54.46
2022-11-14T11:55:49.643Z,53.66
2022-11-14T11:56:49.619Z,57.04
2022-11-14T11:57:49.657Z,56.40
2022-11-14T11:58:49.604Z,55.11
2022-11-14T11:59:49.612Z,55.43
2022-11-14T12:00:49.603Z,53.33
2022-11-14T12:01:49.670Z,54.46
2022-11-14T12:02:50.490Z,57.04
2022-11-14T12:03:50.671Z,53.33
2022-11-14T12:04:49.574Z,53.50
2022-11-14T12:05:49.567Z,55.43
2022-11-14T12:06:49.589Z,56.88
2022-11-14T12:07:49.529Z,55.91
2022-11-14T12:08:49.514Z,55.11
2022-11-14T12:10:09.924Z,56.07
2022-11-14T12:10:50.519Z,57.36
2022-11-14T12:11:49.488Z,55.75
2022-11-14T12:12:49.474Z,53.01
2022-11-14T12:13:49.521Z,57.20
2022-11-14T12:14:49.466Z,52.69
2022-11-14T12:15:49.452Z,55.11
2022-11-14T12:16:49.453Z,57.20
2022-11-14T12:17:49.422Z,56.56
2022-11-14T12:18:49.416Z,55.59
2022-11-14T12:19:49.402Z,55.91
2022-11-14T12:20:49.409Z,55.59
2022-11-14T12:21:51.020Z,56.88
2022-11-14T12:22:49.472Z,56.24
2022-11-14T12:23:49.360Z,56.24
2022-11-14T12:24:49.364Z,56.07
2022-11-14T12:25:49.343Z,52.85
2022-11-14T12:26:49.327Z,59.30
2022-11-14T12:27:49.396Z,56.56
2022-11-14T12:28:49.307Z,54.79
2022-11-14T12:29:49.298Z,54.95
2022-11-14T12:30:49.330Z,56.24
2022-11-14T12:31:49.288Z,53.66
2022-11-14T12:32:49.412Z,55.11
2022-11-14T12:33:49.257Z,56.07
2022-11-14T12:34:49.295Z,56.07
2022-11-14T12:35:49.248Z,55.91
2022-11-14T12:36:49.232Z,55.75
2022-11-14T12:37:55.245Z,56.56
2022-11-14T12:38:51.233Z,55.11
2022-11-14T12:39:49.292Z,53.33
2022-11-14T12:40:49.195Z,54.30
2022-11-14T12:41:49.195Z,56.07
2022-11-14T12:42:49.172Z,56.56
2022-11-14T12:43:49.255Z,55.59
2022-11-14T12:44:49.176Z,53.98
2022-11-14T12:45:49.154Z,52.85
2022-11-14T12:46:49.160Z,54.30
2022-11-14T12:47:49.125Z,53.66
2022-11-14T12:48:49.113Z,53.82
2022-11-14T12:49:49.120Z,54.95
2022-11-14T12:50:49.185Z,56.24
2022-11-14T12:51:49.103Z,56.40
2022-11-14T12:52:49.088Z,57.69
2022-11-14T12:53:49.080Z,56.56